createdAt,value
2023-09-18T00:05:00.768Z,6.70
2023-09-18T00:10:04.312Z,6.90
2023-09-18T00:15:09.904Z,7.10
2023-09-18T00:20:13.658Z,7.30
2023-09-18T00:25:16.930Z,7.40
2023-09-18T00:30:20.031Z,8.80
2023-09-18T00:35:26.985Z,7.70
2023-09-18T00:40:30.847Z,7.90
2023-09-18T00:45:54.811Z,7.60
2023-09-18T00:50:58.225Z,8.20
2023-09-18T00:56:05.092Z,8.70
2023-09-18T01:01:13.270Z,9.00
2023-09-18T01:06:16.793Z,8.90
2023-09-18T01:11:42.239Z,11.40
2023-09-18T01:17:00.337Z,9.40
2023-09-18T01:22:06.114Z,8.90
2023-09-18T01:27:15.363Z,11.00
2023-09-18T01:32:18.648Z,9.10
2023-09-18T01:37:24.750Z,12.10
2023-09-18T01:42:28.797Z,9.10
2023-09-18T01:47:32.646Z,12.20
2023-09-18T01:52:35.912Z,10.90
2023-09-18T01:57:39.212Z,12.20
2023-09-18T02:02:50.398Z,11.10
2023-09-18T02:08:06.402Z,11.50
2023-09-18T02:13:11.345Z,11.80
2023-09-18T02:18:14.948Z,12.10
2023-09-18T02:23:19.652Z,13.00
2023-09-18T02:28:22.860Z,12.60
2023-09-18T02:33:26.185Z,12.50
2023-09-18T02:38:29.681Z,12.90
2023-09-18T02:43:32.947Z,14.50
2023-09-18T02:48:36.296Z,12.70
2023-09-18T02:53:39.524Z,14.00
2023-09-18T02:58:42.778Z,13.80
2023-09-18T03:03:46.158Z,16.00
2023-09-18T03:08:49.597Z,14.90
2023-09-18T03:13:53.923Z,13.80
2023-09-18T03:19:00.538Z,15.50
2023-09-18T03:24:05.407Z,14.20
2023-09-18T03:29:08.808Z,13.60
2023-09-18T03:34:12.157Z,17.40
2023-09-18T03:39:15.517Z,14.40
2023-09-18T03:44:18.853Z,14.00
2023-09-18T03:49:22.238Z,16.30
2023-09-18T03:54:28.028Z,15.40
2023-09-18T03:59:31.287Z,14.40
2023-09-18T04:04:34.505Z,14.40
2023-09-18T04:09:39.100Z,16.20
2023-09-18T04:14:42.650Z,14.10
2023-09-18T04:19:45.946Z,14.50
2023-09-18T04:24:50.158Z,15.00
2023-09-18T04:29:53.590Z,15.50
2023-09-18T04:34:57.244Z,15.70
2023-09-18T04:40:05.886Z,14.70
2023-09-18T04:45:09.722Z,16.10
2023-09-18T04:50:15.087Z,16.20
2023-09-18T04:55:19.378Z,15.50
2023-09-18T05:00:26.327Z,17.40
2023-09-18T05:05:30.853Z,15.40
2023-09-18T05:10:35.905Z,17.70
2023-09-18T05:15:39.276Z,17.00
2023-09-18T05:20:42.537Z,16.80
2023-09-18T05:25:45.864Z,17.10
2023-09-18T05:30:49.171Z,18.00
2023-09-18T05:35:52.619Z,18.90
2023-09-18T05:40:56.030Z,16.30
2023-09-18T05:45:59.505Z,18.80
2023-09-18T05:51:02.780Z,17.50
2023-09-18T05:56:06.643Z,17.00
2023-09-18T06:01:10.453Z,15.80
2023-09-18T06:06:13.849Z,17.00
2023-09-18T06:11:17.121Z,15.10
2023-09-18T06:16:20.521Z,16.30
2023-09-18T06:21:23.974Z,14.20
2023-09-18T06:26:27.226Z,13.20
2023-09-18T06:31:32.202Z,14.00
2023-09-18T06:36:35.360Z,15.60
2023-09-18T06:41:38.655Z,17.30
2023-09-18T06:46:41.955Z,12.50
2023-09-18T06:51:45.118Z,12.60
2023-09-18T06:56:48.776Z,14.00
2023-09-18T07:01:52.067Z,11.70
2023-09-18T07:06:55.870Z,11.60
2023-09-18T07:11:59.236Z,12.00
2023-09-18T07:17:03.288Z,11.90
2023-09-18T07:22:06.532Z,11.30
2023-09-18T07:27:09.611Z,11.80
2023-09-18T07:32:15.021Z,11.90
2023-09-18T07:37:24.091Z,12.90
2023-09-18T07:42:28.369Z,11.00
2023-09-18T07:47:32.583Z,12.30
2023-09-18T07:52:37.282Z,12.20
2023-09-18T07:57:40.568Z,13.90
2023-09-18T08:02:44.304Z,12.10
2023-09-18T08:07:49.217Z,12.20
2023-09-18T08:12:53.803Z,12.40
2023-09-18T08:17:57.306Z,12.60
2023-09-18T08:23:04.696Z,12.90
2023-09-18T08:28:09.875Z,11.40
2023-09-18T08:33:13.517Z,11.70
2023-09-18T08:38:16.972Z,12.10
2023-09-18T08:43:21.053Z,12.40
2023-09-18T08:48:24.795Z,11.20
2023-09-18T08:53:28.555Z,13.30
2023-09-18T08:58:40.798Z,9.60
2023-09-18T09:03:46.604Z,12.20
2023-09-18T09:08:51.660Z,11.40
2023-09-18T09:14:14.450Z,12.10
2023-09-18T09:19:19.026Z,9.90
2023-09-18T09:24:43.976Z,9.20
2023-09-18T09:30:00.153Z,10.30
2023-09-18T09:35:08.113Z,7.80
2023-09-18T09:40:15.630Z,7.60
2023-09-18T09:45:19.557Z,6.10
2023-09-18T09:50:23.224Z,7.20
2023-09-18T09:55:32.531Z,8.00
2023-09-18T10:00:51.224Z,6.20
2023-09-18T10:05:57.384Z,8.70
2023-09-18T10:11:08.710Z,7.00
2023-09-18T10:16:15.395Z,6.90
2023-09-18T10:21:21.839Z,7.80
2023-09-18T10:26:30.171Z,7.80
2023-09-18T10:31:36.266Z,7.90
2023-09-18T10:36:43.104Z,6.70
2023-09-18T10:41:53.008Z,10.30
2023-09-18T10:46:56.743Z,6.60
2023-09-18T10:52:02.168Z,7.40
2023-09-18T10:57:05.629Z,7.60
2023-09-18T11:02:09.407Z,7.40
2023-09-18T11:07:30.547Z,6.50
2023-09-18T11:13:06.718Z,8.40
2023-09-18T11:18:10.056Z,7.30
2023-09-18T11:23:13.398Z,7.20
2023-09-18T11:28:24.681Z,7.50
2023-09-18T11:33:42.198Z,8.30
2023-09-18T11:39:04.411Z,8.00
2023-09-18T11:44:14.840Z,8.70
2023-09-18T11:49:27.828Z,11.40
2023-09-18T11:54:35.424Z,12.20
2023-09-18T11:59:44.838Z,10.40
2023-09-18T12:04:51.560Z,9.10
2023-09-18T12:09:55.886Z,9.50
2023-09-18T12:14:59.174Z,9.40
2023-09-18T12:20:02.580Z,10.30
2023-09-18T12:25:16.311Z,9.40
2023-09-18T12:30:22.699Z,8.90
2023-09-18T12:35:31.012Z,8.90
2023-09-18T12:40:34.636Z,9.70
2023-09-18T12:45:38.074Z,10.50
2023-09-18T12:50:41.420Z,10.50
2023-09-18T12:55:44.955Z,9.80
2023-09-18T13:00:52.217Z,8.80
2023-09-18T13:06:09.904Z,8.80
2023-09-18T13:11:16.041Z,9.10
2023-09-18T13:16:19.287Z,9.30
2023-09-18T13:21:22.660Z,10.80
2023-09-18T13:26:25.872Z,12.80
2023-09-18T13:31:30.487Z,9.50
2023-09-18T13:36:34.659Z,10.60
2023-09-18T13:41:38.375Z,10.00
2023-09-18T13:46:42.694Z,9.70
2023-09-18T13:51:46.076Z,10.90
2023-09-18T13:56:49.496Z,10.80
2023-09-18T14:01:53.319Z,10.20
2023-09-18T14:06:57.157Z,10.30
2023-09-18T14:12:00.573Z,10.10
2023-09-18T14:17:07.275Z,10.00
2023-09-18T14:22:11.622Z,9.90
2023-09-18T14:27:15.373Z,9.90
2023-09-18T14:32:18.488Z,9.60
2023-09-18T14:37:21.740Z,10.30
2023-09-18T14:42:25.257Z,8.90
2023-09-18T14:47:28.528Z,9.40
2023-09-18T14:52:33.362Z,10.40
2023-09-18T14:57:36.498Z,8.00
2023-09-18T15:02:39.899Z,8.70
2023-09-18T15:07:43.301Z,11.40
2023-09-18T15:12:46.479Z,10.10
2023-09-18T15:17:51.061Z,9.50
2023-09-18T15:22:57.025Z,8.50
2023-09-18T15:28:00.487Z,10.10
2023-09-18T15:33:04.173Z,10.00
2023-09-18T15:38:10.296Z,10.20
2023-09-18T15:43:13.611Z,9.50
2023-09-18T15:48:18.771Z,11.20
2023-09-18T15:53:22.282Z,10.00
2023-09-18T15:58:25.578Z,11.80
2023-09-18T16:03:29.062Z,10.20
2023-09-18T16:08:32.532Z,10.40
2023-09-18T16:13:36.126Z,12.70
2023-09-18T16:18:40.322Z,11.80
2023-09-18T16:23:43.864Z,13.40
2023-09-18T16:28:48.311Z,12.10
2023-09-18T16:33:52.808Z,12.00
2023-09-18T16:38:56.318Z,12.10
2023-09-18T16:43:59.973Z,14.10
2023-09-18T16:49:05.413Z,12.40
2023-09-18T16:54:16.692Z,14.40
2023-09-18T16:59:21.368Z,15.20
2023-09-18T17:04:24.778Z,13.30
2023-09-18T17:09:28.082Z,14.00
2023-09-18T17:14:31.737Z,15.70
2023-09-18T17:19:35.103Z,14.30
2023-09-18T17:24:39.260Z,14.60
2023-09-18T17:29:42.489Z,13.60
2023-09-18T17:34:47.458Z,13.90
2023-09-18T17:39:50.709Z,19.80
2023-09-18T17:44:53.935Z,14.90
2023-09-18T17:49:57.214Z,16.60
2023-09-18T17:55:03.189Z,18.20
2023-09-18T18:00:07.785Z,15.50
2023-09-18T18:05:15.875Z,18.40
2023-09-18T18:10:19.435Z,13.80
2023-09-18T18:15:22.610Z,14.30
2023-09-18T18:20:25.844Z,14.80
2023-09-18T18:25:29.058Z,14.00
2023-09-18T18:30:32.322Z,14.20
2023-09-18T18:35:35.664Z,14.30
2023-09-18T18:40:44.253Z,17.10
2023-09-18T18:45:53.572Z,13.80
2023-09-18T18:51:03.681Z,14.80
2023-09-18T18:56:07.750Z,14.20
2023-09-18T19:01:11.009Z,17.00
2023-09-18T19:06:15.268Z,16.20
2023-09-18T19:11:18.659Z,13.60
2023-09-18T19:16:21.885Z,18.20
2023-09-18T19:21:25.287Z,15.50
2023-09-18T19:26:28.826Z,16.10
2023-09-18T19:31:32.257Z,16.90
2023-09-18T19:36:35.533Z,17.30
2023-09-18T19:41:39.457Z,17.00
2023-09-18T19:46:42.790Z,16.50
2023-09-18T19:51:46.203Z,16.30
2023-09-18T19:56:49.514Z,14.50
2023-09-18T20:01:53.208Z,15.80
2023-09-18T20:06:56.525Z,16.30
2023-09-18T20:12:00.669Z,14.70
2023-09-18T20:17:04.177Z,15.40
2023-09-18T20:22:07.369Z,17.00
2023-09-18T20:27:11.155Z,14.80
2023-09-18T20:32:15.004Z,15.00
2023-09-18T20:37:18.412Z,14.20
2023-09-18T20:42:22.338Z,14.10
2023-09-18T20:47:26.918Z,15.30
2023-09-18T20:52:30.698Z,14.90
2023-09-18T20:57:34.318Z,17.70
2023-09-18T21:02:37.729Z,14.50
2023-09-18T21:07:41.294Z,14.60
2023-09-18T21:12:44.854Z,19.40
2023-09-18T21:17:48.149Z,12.80
2023-09-18T21:22:51.536Z,14.90
2023-09-18T21:28:01.119Z,16.00
2023-09-18T21:33:06.595Z,14.20
2023-09-18T21:38:09.993Z,13.50
2023-09-18T21:43:13.196Z,14.90
2023-09-18T21:48:16.401Z,14.00
2023-09-18T21:53:19.629Z,14.60
2023-09-18T21:58:23.177Z,14.70
2023-09-18T22:03:26.885Z,14.90
2023-09-18T22:08:31.282Z,14.70
2023-09-18T22:13:34.642Z,14.20
2023-09-18T22:18:38.032Z,14.70
2023-09-18T22:23:41.489Z,15.20
2023-09-18T22:28:44.963Z,15.70
2023-09-18T22:33:50.242Z,15.90
2023-09-18T22:39:21.672Z,14.90
2023-09-18T22:45:02.657Z,15.80
2023-09-18T22:50:43.538Z,16.70
2023-09-18T22:55:46.740Z,16.60
2023-09-18T23:00:50.491Z,17.60
2023-09-18T23:05:55.888Z,14.50
2023-09-18T23:11:06.123Z,17.90
2023-09-18T23:16:09.446Z,17.60
2023-09-18T23:21:12.521Z,16.00
2023-09-18T23:26:15.952Z,18.90
2023-09-18T23:31:21.620Z,16.20
2023-09-18T23:36:25.141Z,17.10
2023-09-18T23:41:41.845Z,17.60
2023-09-18T23:52:03.754Z,15.70
2023-09-18T23:57:09.009Z,18.50
